Time;durP1;ratioP1;P1;durP2;ratioP2;P2;SDS_P1;SDS_P2;PMS_P1;PMS_P2;Temp;Humidity;BMP_temperature;BMP_pressure;BME280_temperature;BME280_humidity;BME280_pressure;Samples;Min_cycle;Max_cycle;Signal;HPM_P1;HPM_P2
2022/10/14 00:01:31;;;;;;;12.73;11.82;;;;;;;;;;5013550;28;20049;-68
2022/10/14 00:03:58;;;;;;;11.45;10.65;;;;;;;;;;5013829;28;20034;-68
2022/10/14 00:06:26;;;;;;;11.48;10.60;;;;;;;;;;5013517;28;20033;-68
2022/10/14 00:08:52;;;;;;;12.32;11.32;;;;;;;;;;5013255;28;20033;-67
2022/10/14 00:11:26;;;;;;;13.75;11.35;;;;;;;;;;5014285;28;20536;-68
2022/10/14 00:13:57;;;;;;;22.35;11.57;;;;;;;;;;5012027;28;20037;-67
2022/10/14 00:16:35;;;;;;;11.15;10.15;;;;;;;;;;5013295;28;20541;-68
2022/10/14 00:19:00;;;;;;;11.57;10.52;;;;;;;;;;5015581;28;20044;-68
2022/10/14 00:21:27;;;;;;;11.07;10.27;;;;;;;;;;5013782;28;20033;-68
2022/10/14 00:23:53;;;;;;;11.20;10.15;;;;;;;;;;5015677;28;20474;-68
2022/10/14 00:26:24;;;;;;;11.30;10.35;;;;;;;;;;5014022;28;20085;-68
2022/10/14 00:28:51;;;;;;;11.15;10.43;;;;;;;;;;5013754;28;20676;-68
2022/10/14 00:31:16;;;;;;;11.10;10.32;;;;;;;;;;5018720;28;20459;-67
2022/10/14 00:33:42;;;;;;;12.80;11.93;;;;;;;;;;5012887;28;20031;-68
2022/10/14 00:36:10;;;;;;;11.25;10.45;;;;;;;;;;5010791;28;20041;-68
2022/10/14 00:38:36;;;;;;;10.02;9.32;;;;;;;;;;5014540;28;20032;-68
2022/10/14 00:41:02;;;;;;;11.27;10.48;;;;;;;;;;5018687;28;20025;-68
2022/10/14 00:43:29;;;;;;;9.98;9.32;;;;;;;;;;5015839;28;20029;-68
2022/10/14 00:45:54;;;;;;;11.25;10.35;;;;;;;;;;5016594;28;20028;-68
2022/10/14 00:48:23;;;;;;;10.25;9.55;;;;;;;;;;5016032;28;20030;-68
2022/10/14 00:50:52;;;;;;;9.98;9.27;;;;;;;;;;5014917;28;20033;-68
2022/10/14 00:53:18;;;;;;;13.07;11.80;;;;;;;;;;5017719;28;20033;-68
2022/10/14 00:55:44;;;;;;;11.77;10.93;;;;;;;;;;5016747;28;20025;-68
2022/10/14 00:58:10;;;;;;;11.40;10.60;;;;;;;;;;5014877;28;20026;-68
2022/10/14 01:00:36;;;;;;;11.20;10.40;;;;;;;;;;5017478;28;20036;-68
2022/10/14 01:03:09;;;;;;;10.93;10.23;;;;;;;;;;5017980;28;20502;-68
2022/10/14 01:05:42;;;;;;;11.38;10.57;;;;;;;;;;5015576;28;20085;-68
2022/10/14 01:08:14;;;;;;;13.43;11.88;;;;;;;;;;5013175;28;20022;-67
2022/10/14 01:11:09;;;;;;;11.00;10.30;;;;;;;;;;5016962;28;20018;-68
2022/10/14 01:13:40;;;;;;;12.32;11.32;;;;;;;;;;5002698;28;20033;-68
2022/10/14 01:16:08;;;;;;;;;;;;;;;;;;5016541;28;20038;-68
2022/10/14 01:18:42;;;;;;;9.82;9.13;;;;;;;;;;5016981;28;19928;-68
2022/10/14 01:21:26;;;;;;;11.23;10.38;;;;;;;;;;5016781;28;20029;-68
2022/10/14 01:24:30;;;;;;;11.35;10.45;;;;;;;;;;5018432;28;20037;-68
2022/10/14 01:27:02;;;;;;;12.20;11.23;;;;;;;;;;5018318;28;20049;-69
2022/10/14 01:29:42;;;;;;;11.27;10.50;;;;;;;;;;5016897;28;20052;-68
2022/10/14 01:32:25;;;;;;;11.02;10.23;;;;;;;;;;5016687;28;20379;-69
2022/10/14 01:34:58;;;;;;;11.35;10.55;;;;;;;;;;5018098;28;20408;-69
2022/10/14 01:37:27;;;;;;;11.88;10.98;;;;;;;;;;5014040;28;20057;-68
2022/10/14 01:40:00;;;;;;;10.60;9.90;;;;;;;;;;5016068;28;20116;-68
2022/10/14 01:42:29;;;;;;;13.48;11.45;;;;;;;;;;5014339;28;20037;-68
2022/10/14 01:45:01;;;;;;;11.57;10.77;;;;;;;;;;5012984;28;20029;-68
2022/10/14 01:47:31;;;;;;;11.43;10.63;;;;;;;;;;5017575;28;20022;-68
2022/10/14 01:50:01;;;;;;;12.48;11.38;;;;;;;;;;5015936;28;20364;-68
2022/10/14 01:52:32;;;;;;;12.90;12.02;;;;;;;;;;5017624;28;20033;-68
2022/10/14 01:55:02;;;;;;;12.25;11.45;;;;;;;;;;5015219;28;20030;-68
2022/10/14 01:57:31;;;;;;;11.68;10.88;;;;;;;;;;5014947;28;20076;-68
2022/10/14 01:59:58;;;;;;;12.77;11.77;;;;;;;;;;5014325;28;20316;-67
2022/10/14 02:02:24;;;;;;;11.68;10.90;;;;;;;;;;5015849;28;20064;-68
2022/10/14 02:04:50;;;;;;;13.50;12.50;;;;;;;;;;5017453;28;20029;-68
2022/10/14 02:07:41;;;;;;;12.80;11.82;;;;;;;;;;5014294;28;20030;-68
2022/10/14 02:10:28;;;;;;;12.15;11.27;;;;;;;;;;5014554;28;20037;-68
2022/10/14 02:13:22;;;;;;;11.18;10.38;;;;;;;;;;5013008;28;20041;-67
2022/10/14 02:16:16;;;;;;;11.60;10.82;;;;;;;;;;5013723;28;20025;-67
2022/10/14 02:18:50;;;;;;;11.90;11.10;;;;;;;;;;5012304;28;20049;-67
2022/10/14 02:21:34;;;;;;;11.40;10.50;;;;;;;;;;5014133;28;20090;-67
2022/10/14 02:24:05;;;;;;;12.52;11.63;;;;;;;;;;5013387;28;20018;-67
2022/10/14 02:26:32;;;;;;;10.65;9.80;;;;;;;;;;5013527;28;20025;-67
2022/10/14 02:29:00;;;;;;;11.20;10.50;;;;;;;;;;5013996;28;20430;-67
2022/10/14 02:31:27;;;;;;;12.70;11.70;;;;;;;;;;5015552;28;20604;-67
2022/10/14 02:33:57;;;;;;;12.00;11.00;;;;;;;;;;5014352;28;20472;-67
2022/10/14 02:36:25;;;;;;;12.13;11.13;;;;;;;;;;5015589;28;20040;-68
2022/10/14 02:38:53;;;;;;;12.40;11.57;;;;;;;;;;5015105;28;20060;-67
2022/10/14 02:41:21;;;;;;;13.45;12.23;;;;;;;;;;5012202;28;20046;-68
2022/10/14 02:43:47;;;;;;;11.85;10.68;;;;;;;;;;5014158;28;20033;-68
2022/10/14 02:46:13;;;;;;;11.30;10.55;;;;;;;;;;5016273;28;20059;-68
2022/10/14 02:48:39;;;;;;;12.48;11.48;;;;;;;;;;5015863;28;20131;-67
2022/10/14 02:51:04;;;;;;;13.43;12.48;;;;;;;;;;5016152;28;20037;-67
2022/10/14 02:53:29;;;;;;;11.80;10.90;;;;;;;;;;5013676;28;20037;-68
2022/10/14 02:55:55;;;;;;;11.38;10.50;;;;;;;;;;5011760;28;20395;-67
2022/10/14 02:58:20;;;;;;;11.13;10.43;;;;;;;;;;5015322;28;20120;-67
2022/10/14 03:00:48;;;;;;;11.10;10.15;;;;;;;;;;5014323;28;20310;-68
2022/10/14 03:03:13;;;;;;;10.65;9.95;;;;;;;;;;5011025;28;20033;-68
2022/10/14 03:05:39;;;;;;;12.45;11.50;;;;;;;;;;5015649;28;20245;-68
2022/10/14 03:08:04;;;;;;;12.07;11.13;;;;;;;;;;5014975;28;20276;-67
2022/10/14 03:10:29;;;;;;;12.00;11.20;;;;;;;;;;5017007;28;20421;-68
2022/10/14 03:12:55;;;;;;;10.52;9.77;;;;;;;;;;5009600;28;20128;-67
2022/10/14 03:15:20;;;;;;;11.25;10.48;;;;;;;;;;5027003;28;20237;-67
2022/10/14 03:17:45;;;;;;;11.05;10.15;;;;;;;;;;5013130;28;20413;-67
2022/10/14 03:20:11;;;;;;;11.98;11.07;;;;;;;;;;5017516;28;20042;-68
2022/10/14 03:22:36;;;;;;;11.65;10.75;;;;;;;;;;5014502;28;20029;-69
2022/10/14 03:25:02;;;;;;;11.38;10.57;;;;;;;;;;5019261;28;20034;-68
2022/10/14 03:27:28;;;;;;;11.27;10.52;;;;;;;;;;5013420;28;20036;-68
2022/10/14 03:29:53;;;;;;;11.25;10.48;;;;;;;;;;5014256;28;20356;-69
2022/10/14 03:32:19;;;;;;;9.40;8.80;;;;;;;;;;5014240;28;20036;-68
2022/10/14 03:34:44;;;;;;;12.23;10.90;;;;;;;;;;5016658;28;20052;-69
2022/10/14 03:37:09;;;;;;;11.88;10.73;;;;;;;;;;5014477;28;20030;-73
2022/10/14 03:39:35;;;;;;;10.40;9.70;;;;;;;;;;5014086;28;20087;-69
2022/10/14 03:42:00;;;;;;;10.73;10.02;;;;;;;;;;5016059;28;20022;-71
2022/10/14 03:44:26;;;;;;;10.93;10.20;;;;;;;;;;5018543;28;20033;-71
2022/10/14 03:46:51;;;;;;;10.57;9.77;;;;;;;;;;5014010;28;20029;-70
2022/10/14 03:49:16;;;;;;;10.90;10.13;;;;;;;;;;5017807;28;20069;-71
2022/10/14 03:51:42;;;;;;;12.05;11.15;;;;;;;;;;5015220;28;20446;-71
2022/10/14 03:54:07;;;;;;;10.27;9.57;;;;;;;;;;5017214;28;20037;-71
2022/10/14 03:56:32;;;;;;;10.68;9.95;;;;;;;;;;5011494;28;20051;-72
2022/10/14 03:58:58;;;;;;;11.23;10.43;;;;;;;;;;5013581;28;20431;-71
2022/10/14 04:01:23;;;;;;;10.60;9.70;;;;;;;;;;5013141;28;20451;-71
2022/10/14 04:03:49;;;;;;;10.80;10.10;;;;;;;;;;5015816;28;20654;-70
2022/10/14 04:06:15;;;;;;;10.40;9.70;;;;;;;;;;5012675;28;20311;-70
2022/10/14 04:08:41;;;;;;;11.25;10.50;;;;;;;;;;5013039;28;20104;-70
2022/10/14 04:11:07;;;;;;;11.18;10.32;;;;;;;;;;5013359;28;20542;-69
2022/10/14 04:13:32;;;;;;;11.10;10.30;;;;;;;;;;5014260;28;20048;-70
2022/10/14 04:16:06;;;;;;;11.63;10.77;;;;;;;;;;5019275;28;20036;-70
2022/10/14 04:18:32;;;;;;;10.93;10.18;;;;;;;;;;5018654;28;20418;-69
2022/10/14 04:21:02;;;;;;;11.77;10.98;;;;;;;;;;5018830;28;20032;-70
2022/10/14 04:23:27;;;;;;;11.70;10.80;;;;;;;;;;5018428;28;20060;-70
2022/10/14 04:25:52;;;;;;;12.98;12.07;;;;;;;;;;5018162;28;20073;-70
2022/10/14 04:28:18;;;;;;;11.10;10.40;;;;;;;;;;5020144;28;20017;-69
2022/10/14 04:30:43;;;;;;;10.43;9.73;;;;;;;;;;5016049;28;20017;-70
2022/10/14 04:33:08;;;;;;;11.02;10.32;;;;;;;;;;5020733;28;20034;-69
2022/10/14 04:35:34;;;;;;;10.52;9.80;;;;;;;;;;5019933;28;20046;-73
2022/10/14 04:37:59;;;;;;;9.77;9.18;;;;;;;;;;5021624;28;20083;-69
2022/10/14 04:40:25;;;;;;;10.15;9.45;;;;;;;;;;5019406;28;20022;-70
2022/10/14 04:42:55;;;;;;;10.10;9.40;;;;;;;;;;5016428;28;20814;-71
2022/10/14 04:45:20;;;;;;;11.07;10.27;;;;;;;;;;5017967;28;20363;-70
2022/10/14 04:47:45;;;;;;;10.82;9.80;;;;;;;;;;5017927;28;20032;-69
2022/10/14 04:50:11;;;;;;;11.60;10.80;;;;;;;;;;5017285;28;20052;-70
2022/10/14 04:52:36;;;;;;;10.63;9.73;;;;;;;;;;5014935;28;20845;-69
2022/10/14 04:55:02;;;;;;;11.60;10.70;;;;;;;;;;5018049;28;20489;-70
2022/10/14 04:57:27;;;;;;;10.38;9.68;;;;;;;;;;5019207;28;20476;-70
2022/10/14 04:59:53;;;;;;;11.02;10.27;;;;;;;;;;5016800;28;20121;-70
2022/10/14 05:02:18;;;;;;;10.50;9.80;;;;;;;;;;5017813;28;20124;-69
2022/10/14 05:04:44;;;;;;;10.63;9.82;;;;;;;;;;5016519;28;20026;-71
2022/10/14 05:07:09;;;;;;;10.80;10.02;;;;;;;;;;5015874;28;20033;-70
2022/10/14 05:09:34;;;;;;;11.63;10.82;;;;;;;;;;5017089;28;20069;-71
2022/10/14 05:12:00;;;;;;;11.43;10.52;;;;;;;;;;5018105;28;20607;-69
2022/10/14 05:14:25;;;;;;;12.50;11.52;;;;;;;;;;5020236;28;20467;-70
2022/10/14 05:16:51;;;;;;;11.75;10.85;;;;;;;;;;5016931;28;20042;-70
2022/10/14 05:19:17;;;;;;;11.15;10.32;;;;;;;;;;5014923;28;20033;-69
2022/10/14 05:21:42;;;;;;;9.80;9.15;;;;;;;;;;5015748;28;20083;-69
2022/10/14 05:24:07;;;;;;;12.18;11.35;;;;;;;;;;5047792;28;20108;-69
2022/10/14 05:26:33;;;;;;;11.88;10.98;;;;;;;;;;5017944;28;20112;-69
2022/10/14 05:28:58;;;;;;;11.57;10.77;;;;;;;;;;5016903;28;20095;-70
2022/10/14 05:31:23;;;;;;;11.38;10.57;;;;;;;;;;5017286;28;20030;-69
2022/10/14 05:33:49;;;;;;;10.48;9.77;;;;;;;;;;5016164;28;20034;-72
2022/10/14 05:36:14;;;;;;;10.52;9.73;;;;;;;;;;5032352;28;20040;-70
2022/10/14 05:38:40;;;;;;;12.68;11.82;;;;;;;;;;5018294;28;20075;-69
2022/10/14 05:41:05;;;;;;;10.95;10.25;;;;;;;;;;5017405;28;20033;-69
2022/10/14 05:43:31;;;;;;;12.15;11.05;;;;;;;;;;5011596;28;20490;-69
2022/10/14 05:45:56;;;;;;;11.77;10.75;;;;;;;;;;5014724;28;20095;-69
2022/10/14 05:48:21;;;;;;;10.60;9.80;;;;;;;;;;5015356;28;20037;-68
2022/10/14 05:50:47;;;;;;;10.52;9.73;;;;;;;;;;5015805;28;20053;-69
2022/10/14 05:53:12;;;;;;;10.52;9.82;;;;;;;;;;5017675;28;20037;-68
2022/10/14 05:55:37;;;;;;;11.13;10.40;;;;;;;;;;5014095;28;20665;-68
2022/10/14 05:58:03;;;;;;;11.70;10.90;;;;;;;;;;5015526;28;20038;-68
2022/10/14 06:00:28;;;;;;;11.68;10.88;;;;;;;;;;5015981;28;20068;-68
2022/10/14 06:02:56;;;;;;;10.65;9.85;;;;;;;;;;5018923;28;20598;-69
2022/10/14 06:05:22;;;;;;;12.10;11.13;;;;;;;;;;5016998;28;20045;-68
2022/10/14 06:07:47;;;;;;;12.77;11.73;;;;;;;;;;5015409;28;20026;-68
2022/10/14 06:10:12;;;;;;;11.52;10.63;;;;;;;;;;5014960;28;20064;-69
2022/10/14 06:12:38;;;;;;;11.10;10.18;;;;;;;;;;5014083;28;20033;-68
2022/10/14 06:15:04;;;;;;;11.93;11.02;;;;;;;;;;5014317;28;20025;-69
2022/10/14 06:17:29;;;;;;;12.45;11.55;;;;;;;;;;5014419;28;20472;-68
2022/10/14 06:19:54;;;;;;;10.85;10.15;;;;;;;;;;5013306;28;20026;-69
2022/10/14 06:22:20;;;;;;;11.93;11.05;;;;;;;;;;5015775;28;20055;-68
2022/10/14 06:24:45;;;;;;;10.93;10.23;;;;;;;;;;5045012;28;20033;-68
2022/10/14 06:27:11;;;;;;;11.40;10.50;;;;;;;;;;5013292;28;20120;-68
2022/10/14 06:29:37;;;;;;;12.45;11.45;;;;;;;;;;5011471;28;20710;-68
2022/10/14 06:32:07;;;;;;;11.73;10.82;;;;;;;;;;5013033;28;20121;-68
2022/10/14 06:34:33;;;;;;;12.10;11.30;;;;;;;;;;5012968;28;20343;-69
2022/10/14 06:36:59;;;;;;;11.60;10.68;;;;;;;;;;5014525;28;20907;-68
2022/10/14 06:39:25;;;;;;;11.93;11.13;;;;;;;;;;5012996;28;20034;-68
2022/10/14 06:41:50;;;;;;;11.68;10.43;;;;;;;;;;5013491;28;20333;-68
2022/10/14 06:44:15;;;;;;;11.13;10.30;;;;;;;;;;5011794;28;20162;-69
2022/10/14 06:46:41;;;;;;;11.32;10.50;;;;;;;;;;5016527;28;20416;-68
2022/10/14 06:49:07;;;;;;;11.25;10.50;;;;;;;;;;5012290;28;20164;-68
2022/10/14 06:51:33;;;;;;;10.85;10.15;;;;;;;;;;5015471;28;20060;-68
2022/10/14 06:53:58;;;;;;;10.88;9.95;;;;;;;;;;5013714;28;20041;-68
2022/10/14 06:56:24;;;;;;;11.55;10.65;;;;;;;;;;5018892;28;20028;-68
2022/10/14 06:58:53;;;;;;;10.48;9.77;;;;;;;;;;5012003;28;20329;-68
2022/10/14 07:01:19;;;;;;;11.07;10.13;;;;;;;;;;5014349;28;20041;-68
2022/10/14 07:03:44;;;;;;;10.93;10.13;;;;;;;;;;5012009;28;20033;-68
2022/10/14 07:06:09;;;;;;;11.05;10.25;;;;;;;;;;5008670;28;20658;-68
2022/10/14 07:08:35;;;;;;;13.68;12.52;;;;;;;;;;5012273;28;20069;-68
2022/10/14 07:11:00;;;;;;;10.98;10.23;;;;;;;;;;5012682;28;20048;-68
2022/10/14 07:13:26;;;;;;;11.95;11.07;;;;;;;;;;5015597;28;20200;-68
2022/10/14 07:15:51;;;;;;;11.45;10.55;;;;;;;;;;5019703;28;20029;-68
2022/10/14 07:18:17;;;;;;;11.57;10.77;;;;;;;;;;5014441;28;20030;-69
2022/10/14 07:20:44;;;;;;;9.40;8.77;;;;;;;;;;5015279;28;20122;-69
2022/10/14 07:23:10;;;;;;;11.75;10.95;;;;;;;;;;5016857;28;20026;-68
2022/10/14 07:25:35;;;;;;;11.07;10.38;;;;;;;;;;5016449;28;20040;-68
2022/10/14 07:28:01;;;;;;;9.82;9.13;;;;;;;;;;5013895;28;20501;-68
2022/10/14 07:30:26;;;;;;;10.32;9.60;;;;;;;;;;5013109;28;20148;-68
2022/10/14 07:32:52;;;;;;;12.82;11.93;;;;;;;;;;5014620;28;20414;-68
2022/10/14 07:35:18;;;;;;;10.00;9.23;;;;;;;;;;5012534;28;20030;-69
2022/10/14 07:37:44;;;;;;;12.30;11.23;;;;;;;;;;5014604;28;20026;-68
2022/10/14 07:40:10;;;;;;;14.38;12.20;;;;;;;;;;5012995;28;20037;-68
2022/10/14 07:42:36;;;;;;;10.38;9.68;;;;;;;;;;5013415;28;20360;-69
2022/10/14 07:45:03;;;;;;;11.85;11.00;;;;;;;;;;5013073;28;20049;-69
2022/10/14 07:47:28;;;;;;;11.60;10.70;;;;;;;;;;5011342;28;20469;-69
2022/10/14 07:49:54;;;;;;;10.73;9.93;;;;;;;;;;5014128;28;20053;-70
2022/10/14 07:52:19;;;;;;;10.68;9.88;;;;;;;;;;5019927;28;20030;-69
2022/10/14 07:54:45;;;;;;;12.30;11.35;;;;;;;;;;5018876;28;20030;-69
2022/10/14 07:57:11;;;;;;;10.95;10.15;;;;;;;;;;5016979;28;20264;-69
2022/10/14 07:59:37;;;;;;;16.90;9.95;;;;;;;;;;5017954;28;20021;-69
2022/10/14 08:02:03;;;;;;;10.35;9.65;;;;;;;;;;5018710;28;20045;-68
2022/10/14 08:04:28;;;;;;;12.93;11.70;;;;;;;;;;5016733;28;20034;-72
2022/10/14 08:06:54;;;;;;;10.50;9.77;;;;;;;;;;5016848;28;20032;-70
2022/10/14 08:09:20;;;;;;;11.88;10.88;;;;;;;;;;5015527;28;20434;-75
2022/10/14 08:11:46;;;;;;;11.15;10.40;;;;;;;;;;5018432;28;20029;-69
2022/10/14 08:14:12;;;;;;;11.15;10.35;;;;;;;;;;5016508;28;20038;-71
2022/10/14 08:16:38;;;;;;;10.20;9.45;;;;;;;;;;5017450;28;20026;-71
2022/10/14 08:19:06;;;;;;;10.68;9.85;;;;;;;;;;5015079;28;20042;-69
2022/10/14 08:21:32;;;;;;;12.10;11.00;;;;;;;;;;5020298;28;20029;-72
2022/10/14 08:23:58;;;;;;;10.13;9.43;;;;;;;;;;5024537;28;20406;-68
2022/10/14 08:26:46;;;;;;;11.38;10.57;;;;;;;;;;5016342;28;20558;-68
2022/10/14 08:29:12;;;;;;;10.85;10.07;;;;;;;;;;5017439;28;20034;-68
2022/10/14 08:31:37;;;;;;;10.90;10.18;;;;;;;;;;5015142;28;20036;-69
2022/10/14 08:34:03;;;;;;;11.65;10.85;;;;;;;;;;5004543;28;20136;-69
2022/10/14 08:36:28;;;;;;;12.52;11.63;;;;;;;;;;5017386;28;20095;-69
2022/10/14 08:38:53;;;;;;;12.77;11.90;;;;;;;;;;5019973;28;20033;-69
2022/10/14 08:41:53;;;;;;;14.35;13.07;;;;;;;;;;5014426;28;20046;-69
2022/10/14 08:44:31;;;;;;;12.60;11.57;;;;;;;;;;5018043;28;20107;-69
2022/10/14 08:46:59;;;;;;;12.20;11.38;;;;;;;;;;5018180;28;20501;-69
2022/10/14 08:49:39;;;;;;;12.15;11.30;;;;;;;;;;5019593;28;20068;-69
2022/10/14 08:52:16;;;;;;;11.73;10.90;;;;;;;;;;5017762;28;20123;-69
2022/10/14 08:54:48;;;;;;;12.93;11.70;;;;;;;;;;5017648;28;20041;-69
2022/10/14 08:57:26;;;;;;;12.82;11.57;;;;;;;;;;5015390;28;20415;-69
2022/10/14 08:59:52;;;;;;;14.15;13.23;;;;;;;;;;5017232;28;20061;-69
2022/10/14 09:02:44;;;;;;;13.35;12.45;;;;;;;;;;5017025;28;20447;-69
2022/10/14 09:05:14;;;;;;;13.73;12.77;;;;;;;;;;5018989;28;20123;-68
2022/10/14 09:07:40;;;;;;;12.88;12.02;;;;;;;;;;5017837;28;20048;-69
2022/10/14 09:10:10;;;;;;;13.82;12.93;;;;;;;;;;5016741;28;20519;-68
2022/10/14 09:12:38;;;;;;;15.35;14.32;;;;;;;;;;5017503;28;20040;-68
2022/10/14 09:15:26;;;;;;;14.30;13.30;;;;;;;;;;5020341;28;20039;-68
2022/10/14 09:18:09;;;;;;;13.07;12.27;;;;;;;;;;5018564;28;20169;-68
2022/10/14 09:20:35;;;;;;;11.50;10.70;;;;;;;;;;5019141;28;20059;-67
2022/10/14 09:23:03;;;;;;;14.68;13.63;;;;;;;;;;5019597;28;20037;-68
2022/10/14 09:25:32;;;;;;;12.70;11.80;;;;;;;;;;5017702;28;20121;-68
2022/10/14 09:27:58;;;;;;;12.68;11.88;;;;;;;;;;5018211;28;20034;-67
2022/10/14 09:30:23;;;;;;;12.68;11.85;;;;;;;;;;5016673;28;20545;-68
2022/10/14 09:32:53;;;;;;;13.68;12.88;;;;;;;;;;5017890;28;20546;-67
2022/10/14 09:35:24;;;;;;;15.05;14.02;;;;;;;;;;5019116;28;20033;-67
2022/10/14 09:37:49;;;;;;;14.38;13.48;;;;;;;;;;5018870;28;20065;-67
2022/10/14 09:40:34;;;;;;;15.43;14.52;;;;;;;;;;5019148;28;20068;-67
2022/10/14 09:43:09;;;;;;;15.07;13.77;;;;;;;;;;5020284;28;20468;-67
2022/10/14 09:46:09;;;;;;;14.52;13.63;;;;;;;;;;5019306;28;20029;-67
2022/10/14 09:48:48;;;;;;;13.00;12.13;;;;;;;;;;5013895;28;20037;-67
2022/10/14 09:51:27;;;;;;;15.98;15.02;;;;;;;;;;5016719;28;20158;-67
2022/10/14 09:54:03;;;;;;;16.35;15.27;;;;;;;;;;5018876;28;20166;-67
2022/10/14 09:56:35;;;;;;;16.55;15.55;;;;;;;;;;5019896;28;20176;-67
2022/10/14 09:59:03;;;;;;;17.80;16.70;;;;;;;;;;5015609;28;20033;-67
2022/10/14 10:01:39;;;;;;;20.20;19.00;;;;;;;;;;5021338;28;20165;-66
2022/10/14 10:04:30;;;;;;;19.60;18.50;;;;;;;;;;5019193;28;20204;-66
2022/10/14 10:06:56;;;;;;;24.67;23.27;;;;;;;;;;5018592;28;20029;-66
2022/10/14 10:09:23;;;;;;;25.92;24.52;;;;;;;;;;5018877;28;20030;-66
2022/10/14 10:11:48;;;;;;;26.73;25.27;;;;;;;;;;5017498;28;20022;-66
2022/10/14 10:14:16;;;;;;;25.30;23.90;;;;;;;;;;5018447;28;20469;-66
2022/10/14 10:16:41;;;;;;;23.40;22.10;;;;;;;;;;5018527;28;20033;-65
2022/10/14 10:19:30;;;;;;;23.67;22.38;;;;;;;;;;5007459;28;20026;-65
2022/10/14 10:22:21;;;;;;;21.95;20.75;;;;;;;;;;5019992;28;20037;-65
2022/10/14 10:24:49;;;;;;;17.25;15.80;;;;;;;;;;5017956;28;20367;-66
2022/10/14 10:27:20;;;;;;;14.70;13.60;;;;;;;;;;5018186;28;20483;-66
2022/10/14 10:29:45;;;;;;;16.10;14.95;;;;;;;;;;5016786;28;20038;-65
2022/10/14 10:32:33;;;;;;;13.40;12.60;;;;;;;;;;5020964;28;20033;-65
2022/10/14 10:35:43;;;;;;;13.88;12.98;;;;;;;;;;5017375;28;20029;-64
2022/10/14 10:38:21;;;;;;;13.87;13.00;;;;;;;;;;4992303;28;20084;-65
2022/10/14 10:40:55;;;;;;;14.15;13.35;;;;;;;;;;5018779;28;20042;-64
2022/10/14 10:43:38;;;;;;;15.25;14.35;;;;;;;;;;5017791;28;20040;-65
2022/10/14 10:46:22;;;;;;;14.75;13.85;;;;;;;;;;5016905;28;20144;-65
2022/10/14 10:49:10;;;;;;;11.82;11.02;;;;;;;;;;5018262;28;20454;-64
2022/10/14 10:51:55;;;;;;;13.48;12.57;;;;;;;;;;5018889;28;20040;-65
2022/10/14 10:54:57;;;;;;;11.70;10.90;;;;;;;;;;5016909;28;20562;-65
2022/10/14 10:57:37;;;;;;;12.40;11.50;;;;;;;;;;5019480;28;20034;-66
2022/10/14 11:00:12;;;;;;;13.68;12.70;;;;;;;;;;5019355;28;20161;-65
2022/10/14 11:02:46;;;;;;;13.45;12.65;;;;;;;;;;5017020;28;20030;-65
2022/10/14 11:05:22;;;;;;;13.27;12.38;;;;;;;;;;5018161;28;20046;-66
2022/10/14 11:14:14;;;;;;;13.85;12.98;;;;;;;;;;5016121;28;20080;-66
2022/10/14 11:17:01;;;;;;;14.27;13.40;;;;;;;;;;5015689;28;20481;-66
2022/10/14 11:19:56;;;;;;;15.68;14.48;;;;;;;;;;5016581;28;20046;-66
2022/10/14 11:22:47;;;;;;;16.65;15.70;;;;;;;;;;5014962;28;20045;-65
2022/10/14 11:25:24;;;;;;;17.15;16.15;;;;;;;;;;5017140;28;20040;-63
2022/10/14 11:28:05;;;;;;;15.40;14.50;;;;;;;;;;5016464;28;20336;-63
2022/10/14 11:30:49;;;;;;;19.38;17.98;;;;;;;;;;5013832;28;20402;-65
2022/10/14 11:33:43;;;;;;;16.77;15.25;;;;;;;;;;5015093;28;20108;-65
2022/10/14 11:36:46;;;;;;;15.85;14.75;;;;;;;;;;5015787;28;20659;-64
2022/10/14 11:39:35;;;;;;;16.70;15.73;;;;;;;;;;5014613;28;20037;-65
2022/10/14 11:42:25;;;;;;;16.73;15.77;;;;;;;;;;5014759;28;20483;-64
2022/10/14 11:45:08;;;;;;;18.40;17.40;;;;;;;;;;5013957;28;20038;-64
2022/10/14 11:47:38;;;;;;;19.38;17.65;;;;;;;;;;5017017;28;20025;-65
2022/10/14 11:50:20;;;;;;;20.70;19.50;;;;;;;;;;5015200;28;20025;-65
2022/10/14 11:52:53;;;;;;;20.20;19.00;;;;;;;;;;5032950;28;20032;-66
2022/10/14 11:55:23;;;;;;;18.73;17.70;;;;;;;;;;5019536;28;20051;-66
2022/10/14 11:58:17;;;;;;;19.40;18.30;;;;;;;;;;5017219;28;20041;-66
2022/10/14 12:00:55;;;;;;;18.40;17.30;;;;;;;;;;5013224;28;20044;-67
2022/10/14 12:03:42;;;;;;;20.50;19.30;;;;;;;;;;5016481;28;20029;-67
2022/10/14 12:06:22;;;;;;;20.85;19.65;;;;;;;;;;5018227;28;20052;-68
2022/10/14 12:09:02;;;;;;;20.02;18.92;;;;;;;;;;5018888;28;20489;-68
2022/10/14 12:11:30;;;;;;;19.50;18.40;;;;;;;;;;5017002;28;20060;-67
2022/10/14 12:14:21;;;;;;;19.00;17.90;;;;;;;;;;5017026;28;20470;-68
2022/10/14 12:16:47;;;;;;;;;;;;;;;;;;4986652;28;20041;-71
2022/10/14 12:19:18;;;;;;;18.38;17.38;;;;;;;;;;5016309;28;20002;-70
2022/10/14 12:22:12;;;;;;;18.83;17.80;;;;;;;;;;5023891;28;20044;-67
2022/10/14 12:24:42;;;;;;;16.92;15.93;;;;;;;;;;5013409;28;20072;-68
2022/10/14 12:27:11;;;;;;;15.88;14.85;;;;;;;;;;5017857;28;20041;-67
2022/10/14 12:29:41;;;;;;;16.67;15.77;;;;;;;;;;5018607;28;20037;-68
2022/10/14 12:32:15;;;;;;;16.73;15.77;;;;;;;;;;5014955;28;20128;-66
2022/10/14 12:34:42;;;;;;;14.52;13.73;;;;;;;;;;5017262;28;20282;-67
2022/10/14 12:37:30;;;;;;;14.57;13.68;;;;;;;;;;5018799;28;20038;-68
2022/10/14 12:40:02;;;;;;;14.43;13.60;;;;;;;;;;5018586;28;20507;-68
2022/10/14 12:42:29;;;;;;;14.20;13.40;;;;;;;;;;5019392;28;20153;-66
2022/10/14 12:44:57;;;;;;;14.00;13.20;;;;;;;;;;5019234;28;20108;-66
2022/10/14 12:47:30;;;;;;;13.20;12.40;;;;;;;;;;5016386;28;20084;-66
2022/10/14 12:50:01;;;;;;;13.80;12.93;;;;;;;;;;5019925;28;20033;-64
2022/10/14 12:52:36;;;;;;;14.88;13.77;;;;;;;;;;5019098;28;20038;-64
2022/10/14 12:55:08;;;;;;;12.95;12.15;;;;;;;;;;5030046;28;20120;-65
2022/10/14 12:57:36;;;;;;;13.88;12.80;;;;;;;;;;5018450;28;20124;-64
2022/10/14 13:00:31;;;;;;;12.90;12.10;;;;;;;;;;5018052;28;20029;-62
2022/10/14 13:03:02;;;;;;;11.95;11.25;;;;;;;;;;5029438;28;20044;-63
2022/10/14 13:05:37;;;;;;;12.32;11.43;;;;;;;;;;5018701;28;20030;-65
2022/10/14 13:08:13;;;;;;;12.30;11.50;;;;;;;;;;5017891;28;20037;-63
2022/10/14 13:10:42;;;;;;;10.80;10.10;;;;;;;;;;5019048;28;20030;-64
2022/10/14 13:13:48;;;;;;;10.10;9.50;;;;;;;;;;5020543;28;20037;-65
2022/10/14 13:16:19;;;;;;;11.15;10.30;;;;;;;;;;5020383;28;20413;-65
2022/10/14 13:18:44;;;;;;;10.50;9.70;;;;;;;;;;5019365;28;20017;-65
2022/10/14 13:21:20;;;;;;;10.40;9.70;;;;;;;;;;5019884;28;20515;-65
2022/10/14 13:23:49;;;;;;;10.70;10.00;;;;;;;;;;5018242;28;20048;-65
2022/10/14 13:26:34;;;;;;;10.60;9.90;;;;;;;;;;5018835;28;20056;-66
2022/10/14 13:29:05;;;;;;;9.82;9.15;;;;;;;;;;5018643;28;20034;-67
2022/10/14 13:31:45;;;;;;;11.05;10.35;;;;;;;;;;5016972;28;20125;-67
2022/10/14 13:34:20;;;;;;;10.00;9.40;;;;;;;;;;5015323;28;20095;-67
2022/10/14 13:37:18;;;;;;;13.40;11.75;;;;;;;;;;5017385;28;20566;-67
2022/10/14 13:39:44;;;;;;;10.30;9.55;;;;;;;;;;4991053;28;20108;-67
2022/10/14 13:42:22;;;;;;;12.35;11.45;;;;;;;;;;5019399;28;20041;-66
2022/10/14 13:44:48;;;;;;;11.45;10.68;;;;;;;;;;5019941;28;20048;-65
2022/10/14 13:47:15;;;;;;;10.57;9.88;;;;;;;;;;5016445;28;20083;-66
2022/10/14 13:49:42;;;;;;;12.23;11.43;;;;;;;;;;5036903;28;20021;-66
2022/10/14 13:52:17;;;;;;;11.52;10.80;;;;;;;;;;5018781;28;20546;-65
2022/10/14 13:54:42;;;;;;;10.70;10.00;;;;;;;;;;5019189;28;20029;-65
2022/10/14 13:57:16;;;;;;;11.38;10.68;;;;;;;;;;5013997;28;20072;-64
2022/10/14 13:59:46;;;;;;;10.38;9.73;;;;;;;;;;5017262;28;20034;-64
2022/10/14 14:02:19;;;;;;;10.27;9.63;;;;;;;;;;5013027;28;20038;-63
2022/10/14 14:04:56;;;;;;;9.85;9.23;;;;;;;;;;5017196;28;20084;-63
2022/10/14 14:07:27;;;;;;;10.73;10.02;;;;;;;;;;5049822;28;20091;-65
2022/10/14 14:09:57;;;;;;;;;;;;;;;;;;5016643;28;20030;-65
2022/10/14 14:12:23;;;;;;;10.55;9.85;;;;;;;;;;5020020;28;19956;-65
2022/10/14 14:14:50;;;;;;;8.93;8.32;;;;;;;;;;5017459;28;20439;-65
2022/10/14 14:17:21;;;;;;;9.80;9.18;;;;;;;;;;5016040;28;20037;-65
2022/10/14 14:19:47;;;;;;;10.25;9.57;;;;;;;;;;5018668;28;20047;-66
2022/10/14 14:22:26;;;;;;;9.73;9.13;;;;;;;;;;5018950;28;20034;-66
2022/10/14 14:25:13;;;;;;;10.20;9.55;;;;;;;;;;5018608;28;20034;-66
2022/10/14 14:27:45;;;;;;;10.32;9.63;;;;;;;;;;5005815;28;20045;-66
2022/10/14 14:30:29;;;;;;;9.82;9.23;;;;;;;;;;5017776;28;20488;-67
2022/10/14 14:32:59;;;;;;;10.93;10.23;;;;;;;;;;5018100;28;20076;-67
2022/10/14 14:35:25;;;;;;;10.70;9.98;;;;;;;;;;5018660;28;20107;-66
2022/10/14 14:37:51;;;;;;;10.73;10.02;;;;;;;;;;5019499;28;20467;-67
2022/10/14 14:40:20;;;;;;;11.00;10.30;;;;;;;;;;5016067;28;20047;-67
2022/10/14 14:42:50;;;;;;;11.98;11.18;;;;;;;;;;5016630;28;20022;-66
2022/10/14 14:45:21;;;;;;;11.10;10.40;;;;;;;;;;5017801;28;20048;-67
2022/10/14 14:47:50;;;;;;;11.57;10.77;;;;;;;;;;5014290;28;20029;-66
2022/10/14 14:50:19;;;;;;;11.73;11.02;;;;;;;;;;5016771;28;20242;-66